Time;durP1;ratioP1;P1;durP2;ratioP2;P2;SDS_P1;SDS_P2;PMS_P1;PMS_P2;Temp;Humidity;BMP_temperature;BMP_pressure;BME280_temperature;BME280_humidity;BME280_pressure;Samples;Min_cycle;Max_cycle;Signal;HPM_P1;HPM_P2
2023/08/15 00:01:15;;;;;;;3.65;3.22;;;;;;;;;;5010986;28;20025;-76
2023/08/15 00:03:41;;;;;;;11.40;4.50;;;;;;;;;;5026623;28;20057;-75
2023/08/15 00:06:06;;;;;;;4.60;3.33;;;;;;;;;;5011973;28;20064;-76
2023/08/15 00:08:32;;;;;;;5.53;3.55;;;;;;;;;;5010683;28;20091;-75
2023/08/15 00:10:57;;;;;;;6.70;3.78;;;;;;;;;;5026821;28;20103;-76
2023/08/15 00:13:23;;;;;;;4.38;3.30;;;;;;;;;;5010353;28;20749;-76
2023/08/15 00:15:48;;;;;;;6.38;4.05;;;;;;;;;;5011954;28;20030;-76
2023/08/15 00:18:13;;;;;;;8.20;3.75;;;;;;;;;;5009674;28;20622;-77
2023/08/15 00:20:39;;;;;;;5.70;3.88;;;;;;;;;;5026735;28;20036;-75
2023/08/15 00:23:04;;;;;;;8.02;4.15;;;;;;;;;;5009796;28;20451;-76
2023/08/15 00:25:30;;;;;;;6.53;3.80;;;;;;;;;;4993752;28;20058;-76
2023/08/15 00:27:56;;;;;;;4.80;3.78;;;;;;;;;;5011761;28;20434;-76
2023/08/15 00:30:21;;;;;;;6.03;4.03;;;;;;;;;;5026786;28;20411;-76
2023/08/15 00:32:47;;;;;;;4.63;3.85;;;;;;;;;;5010221;28;20053;-76
2023/08/15 00:35:12;;;;;;;5.05;3.92;;;;;;;;;;5009717;28;20113;-76
2023/08/15 00:37:38;;;;;;;6.25;4.05;;;;;;;;;;5009861;28;20137;-76
2023/08/15 00:40:04;;;;;;;8.52;4.28;;;;;;;;;;5009664;28;20033;-77
2023/08/15 00:42:30;;;;;;;6.03;4.63;;;;;;;;;;5011234;28;20029;-77
2023/08/15 00:44:56;;;;;;;8.25;4.72;;;;;;;;;;5009755;28;20123;-76
2023/08/15 00:47:22;;;;;;;6.43;4.80;;;;;;;;;;5011008;28;20402;-76
2023/08/15 00:49:48;;;;;;;8.32;4.72;;;;;;;;;;5009331;28;20037;-76
2023/08/15 00:52:15;;;;;;;6.28;5.20;;;;;;;;;;5008987;28;20124;-76
2023/08/15 00:54:45;;;;;;;9.43;5.35;;;;;;;;;;5010694;28;20513;-76
2023/08/15 00:57:11;;;;;;;7.22;5.05;;;;;;;;;;5009343;28;20653;-76
2023/08/15 00:59:36;;;;;;;6.03;5.43;;;;;;;;;;5010746;28;20025;-76
2023/08/15 01:02:02;;;;;;;10.10;6.55;;;;;;;;;;5010820;28;20034;-76
2023/08/15 01:04:28;;;;;;;9.30;5.85;;;;;;;;;;5010735;28;20022;-76
2023/08/15 01:06:54;;;;;;;7.82;5.95;;;;;;;;;;5010964;28;20018;-76
2023/08/15 01:09:20;;;;;;;9.50;5.68;;;;;;;;;;5009217;28;20461;-76
2023/08/15 01:12:17;;;;;;;6.32;5.72;;;;;;;;;;5009475;28;20107;-75
2023/08/15 01:14:52;;;;;;;7.60;5.93;;;;;;;;;;4974240;28;20498;-76
2023/08/15 01:17:33;;;;;;;8.15;5.43;;;;;;;;;;5010764;28;20129;-77
2023/08/15 01:20:04;;;;;;;11.70;5.38;;;;;;;;;;5009373;28;20040;-77
2023/08/15 01:22:33;;;;;;;7.90;5.03;;;;;;;;;;5009182;28;20109;-75
2023/08/15 01:25:00;;;;;;;9.60;5.45;;;;;;;;;;5010672;28;20446;-77
2023/08/15 01:27:25;;;;;;;10.05;4.82;;;;;;;;;;4992785;28;20062;-76
2023/08/15 01:29:51;;;;;;;6.38;4.88;;;;;;;;;;5009093;28;20418;-76
2023/08/15 01:32:19;;;;;;;10.10;4.88;;;;;;;;;;5009150;28;20045;-76
2023/08/15 01:35:09;;;;;;;5.68;4.88;;;;;;;;;;5009369;28;20034;-76
2023/08/15 01:37:37;;;;;;;6.30;4.95;;;;;;;;;;5009769;28;20034;-76
2023/08/15 01:40:09;;;;;;;8.48;4.72;;;;;;;;;;5008771;28;20036;-75
2023/08/15 01:42:35;;;;;;;;;;;;;;;;;;5009215;28;20462;-76
2023/08/15 01:45:02;;;;;;;5.28;4.78;;;;;;;;;;4992182;28;19917;-75
2023/08/15 01:47:30;;;;;;;8.57;5.20;;;;;;;;;;5008940;28;20116;-75
2023/08/15 01:49:56;;;;;;;7.72;4.95;;;;;;;;;;5010311;28;20055;-76
2023/08/15 01:52:21;;;;;;;8.77;4.70;;;;;;;;;;5025625;28;20029;-76
2023/08/15 01:54:46;;;;;;;7.03;4.97;;;;;;;;;;5009103;28;20067;-76
2023/08/15 01:57:12;;;;;;;7.10;5.28;;;;;;;;;;4992547;28;20378;-76
2023/08/15 01:59:37;;;;;;;7.15;4.93;;;;;;;;;;5008864;28;20107;-78
2023/08/15 02:02:06;;;;;;;5.93;4.95;;;;;;;;;;5009235;28;20089;-76
2023/08/15 02:04:31;;;;;;;7.10;5.25;;;;;;;;;;5009120;28;20033;-75
2023/08/15 02:06:57;;;;;;;13.35;6.40;;;;;;;;;;5008808;28;20030;-75
2023/08/15 02:09:23;;;;;;;5.82;5.22;;;;;;;;;;5010210;28;20451;-75
2023/08/15 02:11:48;;;;;;;7.25;5.88;;;;;;;;;;5010265;28;20036;-75
2023/08/15 02:14:13;;;;;;;7.97;4.95;;;;;;;;;;5024749;28;20034;-76
2023/08/15 02:16:39;;;;;;;20.80;5.95;;;;;;;;;;5010169;28;20025;-75
2023/08/15 02:19:04;;;;;;;11.98;5.55;;;;;;;;;;5009907;28;20033;-76
2023/08/15 02:21:30;;;;;;;5.28;4.78;;;;;;;;;;5024926;28;20470;-76
2023/08/15 02:23:55;;;;;;;7.10;5.70;;;;;;;;;;5010094;28;20087;-77
2023/08/15 02:26:21;;;;;;;7.28;5.10;;;;;;;;;;5011233;28;20057;-76
2023/08/15 02:28:47;;;;;;;10.40;6.10;;;;;;;;;;5012253;28;20033;-76
2023/08/15 02:31:12;;;;;;;12.45;5.30;;;;;;;;;;5028972;28;20474;-76
2023/08/15 02:33:38;;;;;;;7.07;4.65;;;;;;;;;;5029581;28;20022;-76
2023/08/15 02:36:06;;;;;;;9.95;4.95;;;;;;;;;;4996699;28;20026;-76
2023/08/15 02:38:35;;;;;;;9.88;4.85;;;;;;;;;;4998198;28;20347;-77
2023/08/15 02:41:01;;;;;;;6.35;4.93;;;;;;;;;;5017229;28;20018;-77
2023/08/15 02:43:26;;;;;;;9.48;5.60;;;;;;;;;;5014795;28;20364;-77
2023/08/15 02:45:53;;;;;;;8.48;6.30;;;;;;;;;;5015088;28;20033;-77
2023/08/15 02:48:19;;;;;;;9.05;6.05;;;;;;;;;;5012127;28;20029;-76
2023/08/15 02:50:44;;;;;;;5.63;5.03;;;;;;;;;;5014198;28;20026;-76
2023/08/15 02:53:10;;;;;;;5.82;5.05;;;;;;;;;;5012678;28;20434;-77
2023/08/15 02:55:35;;;;;;;16.38;5.35;;;;;;;;;;5011972;28;20026;-76
2023/08/15 02:58:01;;;;;;;5.70;4.95;;;;;;;;;;5012968;28;20113;-76
2023/08/15 03:00:27;;;;;;;10.25;5.00;;;;;;;;;;5013094;28;20018;-76
2023/08/15 03:02:53;;;;;;;13.70;5.75;;;;;;;;;;4997588;28;20045;-75
2023/08/15 03:05:18;;;;;;;8.02;4.75;;;;;;;;;;5014292;28;20100;-76
2023/08/15 03:07:44;;;;;;;9.02;5.82;;;;;;;;;;4996455;28;20124;-77
2023/08/15 03:10:10;;;;;;;7.90;5.40;;;;;;;;;;5011679;28;20064;-76
2023/08/15 03:12:35;;;;;;;6.55;4.70;;;;;;;;;;5013244;28;20033;-76
2023/08/15 03:15:01;;;;;;;15.60;6.57;;;;;;;;;;5012908;28;20363;-77
2023/08/15 03:17:26;;;;;;;9.90;6.25;;;;;;;;;;5011937;28;20497;-76
2023/08/15 03:19:54;;;;;;;13.20;5.43;;;;;;;;;;5013621;28;20033;-76
2023/08/15 03:22:19;;;;;;;6.22;4.85;;;;;;;;;;5013386;28;20113;-76
2023/08/15 03:24:45;;;;;;;6.05;5.38;;;;;;;;;;5028134;28;20132;-77
2023/08/15 03:27:10;;;;;;;7.50;5.00;;;;;;;;;;5013656;28;20058;-77
2023/08/15 03:29:36;;;;;;;17.17;6.10;;;;;;;;;;5013657;28;20036;-77
2023/08/15 03:32:02;;;;;;;6.93;5.43;;;;;;;;;;5014158;28;20030;-77
2023/08/15 03:34:27;;;;;;;15.27;6.22;;;;;;;;;;5015945;28;20129;-77
2023/08/15 03:36:53;;;;;;;6.65;5.28;;;;;;;;;;5015576;28;20351;-76
2023/08/15 03:39:18;;;;;;;9.90;5.63;;;;;;;;;;5028403;28;20881;-76
2023/08/15 03:41:45;;;;;;;7.97;5.80;;;;;;;;;;5034027;28;20021;-76
2023/08/15 03:44:10;;;;;;;8.82;5.43;;;;;;;;;;5047100;28;20480;-77
2023/08/15 03:46:36;;;;;;;10.45;5.97;;;;;;;;;;5031144;28;20037;-76
2023/08/15 03:49:02;;;;;;;8.43;5.93;;;;;;;;;;5032598;28;20469;-77
2023/08/15 03:51:28;;;;;;;6.80;5.53;;;;;;;;;;5030543;28;20038;-77
2023/08/15 03:53:53;;;;;;;14.70;6.30;;;;;;;;;;5047721;28;20037;-77
2023/08/15 03:56:19;;;;;;;10.02;6.07;;;;;;;;;;5030986;28;20033;-76
2023/08/15 03:58:44;;;;;;;11.02;6.13;;;;;;;;;;5031837;28;20033;-76
2023/08/15 04:01:10;;;;;;;10.25;5.65;;;;;;;;;;5031992;28;20088;-77
2023/08/15 04:03:35;;;;;;;8.07;5.90;;;;;;;;;;5015220;28;20451;-76
2023/08/15 04:06:02;;;;;;;8.43;5.82;;;;;;;;;;5033130;28;20458;-77
2023/08/15 04:08:27;;;;;;;14.80;6.32;;;;;;;;;;5030742;28;20029;-77
2023/08/15 04:10:54;;;;;;;8.10;5.30;;;;;;;;;;5013780;28;20112;-77
2023/08/15 04:13:20;;;;;;;9.40;5.70;;;;;;;;;;5013680;28;20130;-77
2023/08/15 04:15:45;;;;;;;10.82;6.07;;;;;;;;;;5031823;28;20449;-76
2023/08/15 04:18:11;;;;;;;8.93;5.65;;;;;;;;;;5029963;28;20029;-77
2023/08/15 04:20:41;;;;;;;16.60;5.68;;;;;;;;;;5013726;28;20071;-77
2023/08/15 04:23:07;;;;;;;11.48;5.88;;;;;;;;;;5031910;28;20087;-77
2023/08/15 04:25:34;;;;;;;7.80;5.82;;;;;;;;;;5013302;28;20040;-77
2023/08/15 04:28:00;;;;;;;12.15;6.07;;;;;;;;;;5031574;28;20033;-77
2023/08/15 04:30:26;;;;;;;10.90;5.45;;;;;;;;;;5046638;28;20022;-77
2023/08/15 04:32:51;;;;;;;10.60;6.75;;;;;;;;;;5031612;28;20563;-77
2023/08/15 04:35:17;;;;;;;7.47;5.35;;;;;;;;;;5046220;28;20068;-77
2023/08/15 04:37:42;;;;;;;6.82;5.72;;;;;;;;;;5046640;28;20057;-76
2023/08/15 04:40:12;;;;;;;9.70;5.72;;;;;;;;;;5031160;28;20048;-77
2023/08/15 04:42:39;;;;;;;9.50;5.65;;;;;;;;;;5045130;28;20025;-76
2023/08/15 04:45:05;;;;;;;10.48;5.72;;;;;;;;;;5029569;28;20112;-76
2023/08/15 04:47:32;;;;;;;13.65;5.82;;;;;;;;;;5045221;28;20038;-77
2023/08/15 04:49:58;;;;;;;9.43;5.10;;;;;;;;;;5029855;28;20058;-76
2023/08/15 04:52:23;;;;;;;8.05;5.22;;;;;;;;;;5030774;28;20025;-77
2023/08/15 04:54:49;;;;;;;8.30;6.35;;;;;;;;;;5046206;28;20029;-76
2023/08/15 04:57:14;;;;;;;10.90;5.28;;;;;;;;;;5040297;28;20025;-80
2023/08/15 04:59:41;;;;;;;9.85;5.47;;;;;;;;;;5010592;28;20041;-75
2023/08/15 05:02:07;;;;;;;11.93;5.03;;;;;;;;;;5015339;28;20057;-74
2023/08/15 05:04:32;;;;;;;13.95;6.07;;;;;;;;;;5015805;28;20017;-74
2023/08/15 05:07:00;;;;;;;9.80;5.20;;;;;;;;;;5030511;28;20041;-74
2023/08/15 05:09:29;;;;;;;10.13;5.35;;;;;;;;;;5030354;28;20025;-74
2023/08/15 05:11:56;;;;;;;11.93;5.78;;;;;;;;;;5005256;28;20490;-74
2023/08/15 05:14:21;;;;;;;7.65;6.35;;;;;;;;;;5020533;28;20557;-76
2023/08/15 05:16:47;;;;;;;8.70;5.70;;;;;;;;;;5025434;28;20029;-76
2023/08/15 05:19:13;;;;;;;13.32;6.15;;;;;;;;;;5028162;28;20500;-76
2023/08/15 05:21:39;;;;;;;8.75;5.88;;;;;;;;;;4998122;28;20487;-73
2023/08/15 05:24:05;;;;;;;13.25;5.78;;;;;;;;;;5026623;28;20024;-74
2023/08/15 05:26:31;;;;;;;17.25;5.63;;;;;;;;;;4991552;28;20054;-75
2023/08/15 05:28:56;;;;;;;9.65;6.00;;;;;;;;;;4991218;28;20042;-75
2023/08/15 05:31:22;;;;;;;7.20;5.40;;;;;;;;;;4990011;28;20389;-76
2023/08/15 05:33:48;;;;;;;9.55;6.18;;;;;;;;;;5001786;28;20032;-75
2023/08/15 05:36:17;;;;;;;9.80;5.70;;;;;;;;;;4984369;28;20068;-76
2023/08/15 05:38:43;;;;;;;9.77;5.60;;;;;;;;;;4987022;28;20510;-75
2023/08/15 05:41:08;;;;;;;9.70;5.63;;;;;;;;;;4992173;28;20041;-76
2023/08/15 05:43:34;;;;;;;24.88;7.07;;;;;;;;;;4994051;28;20038;-76
2023/08/15 05:45:59;;;;;;;17.50;5.50;;;;;;;;;;4995516;28;20650;-76
2023/08/15 05:48:25;;;;;;;9.98;6.20;;;;;;;;;;4993444;28;20034;-78
2023/08/15 05:50:50;;;;;;;10.35;5.25;;;;;;;;;;4984841;28;20553;-75
2023/08/15 05:53:16;;;;;;;12.27;6.22;;;;;;;;;;4986769;28;20026;-76
2023/08/15 05:55:42;;;;;;;11.77;6.30;;;;;;;;;;4986911;28;20462;-78
2023/08/15 05:58:08;;;;;;;10.15;5.63;;;;;;;;;;4986735;28;20037;-74
2023/08/15 06:00:34;;;;;;;6.68;5.18;;;;;;;;;;4991633;28;20038;-76
2023/08/15 06:03:01;;;;;;;14.68;6.30;;;;;;;;;;4993597;28;20810;-75
2023/08/15 06:05:30;;;;;;;17.20;6.57;;;;;;;;;;4987108;28;20559;-76
2023/08/15 06:07:55;;;;;;;24.58;7.00;;;;;;;;;;4989280;28;20026;-74
2023/08/15 06:10:22;;;;;;;16.90;6.25;;;;;;;;;;4983442;28;20113;-77
2023/08/15 06:12:47;;;;;;;8.65;5.82;;;;;;;;;;4997870;28;20109;-72
2023/08/15 06:15:14;;;;;;;13.15;6.53;;;;;;;;;;4980031;28;20045;-78
2023/08/15 06:17:41;;;;;;;6.38;5.50;;;;;;;;;;5001915;28;20108;-74
2023/08/15 06:20:07;;;;;;;10.88;5.85;;;;;;;;;;4983523;28;20042;-76
2023/08/15 06:22:33;;;;;;;8.75;5.53;;;;;;;;;;5001845;28;20072;-77
2023/08/15 06:25:00;;;;;;;10.25;6.18;;;;;;;;;;5002226;28;20022;-76
2023/08/15 06:27:25;;;;;;;11.50;5.53;;;;;;;;;;5003434;28;20049;-74
2023/08/15 06:29:51;;;;;;;7.18;5.50;;;;;;;;;;5005633;28;20413;-72
2023/08/15 06:32:30;;;;;;;18.73;5.63;;;;;;;;;;5006231;28;20586;-80
2023/08/15 06:34:56;;;;;;;12.80;6.25;;;;;;;;;;5020893;28;20026;-74
2023/08/15 06:37:22;;;;;;;10.38;6.05;;;;;;;;;;5003744;28;20072;-76
2023/08/15 06:39:48;;;;;;;12.77;6.10;;;;;;;;;;5011534;28;20021;-76
2023/08/15 06:42:15;;;;;;;11.35;5.55;;;;;;;;;;5016126;28;20758;-76
2023/08/15 06:44:43;;;;;;;13.75;6.68;;;;;;;;;;5026816;28;20048;-76
2023/08/15 06:47:09;;;;;;;13.38;6.13;;;;;;;;;;5011728;28;20194;-75
2023/08/15 06:49:34;;;;;;;8.35;5.38;;;;;;;;;;5010317;28;20746;-76
2023/08/15 06:52:00;;;;;;;8.13;5.63;;;;;;;;;;5027682;28;20041;-73
2023/08/15 06:54:25;;;;;;;11.73;5.88;;;;;;;;;;5017697;28;20340;-73
2023/08/15 06:56:51;;;;;;;14.07;5.63;;;;;;;;;;5009520;28;20450;-73
2023/08/15 06:59:23;;;;;;;12.35;5.70;;;;;;;;;;5022179;28;20052;-77
2023/08/15 07:01:52;;;;;;;7.22;4.82;;;;;;;;;;5019218;28;20168;-77
2023/08/15 07:04:18;;;;;;;10.30;5.40;;;;;;;;;;5023670;28;20036;-74
2023/08/15 07:06:44;;;;;;;7.70;4.97;;;;;;;;;;5003511;28;20029;-74
2023/08/15 07:09:10;;;;;;;13.73;6.25;;;;;;;;;;5022977;28;20477;-76
2023/08/15 07:11:36;;;;;;;5.53;5.03;;;;;;;;;;5013205;28;20087;-74
2023/08/15 07:14:02;;;;;;;11.82;6.03;;;;;;;;;;5007083;28;20618;-74
2023/08/15 07:16:29;;;;;;;12.45;6.00;;;;;;;;;;5002767;28;20045;-76
2023/08/15 07:18:55;;;;;;;10.15;5.50;;;;;;;;;;5029478;28;20091;-79
2023/08/15 07:21:21;;;;;;;10.38;6.22;;;;;;;;;;5004163;28;20033;-76
2023/08/15 07:23:50;;;;;;;9.85;4.63;;;;;;;;;;5010742;28;20053;-76
2023/08/15 07:26:18;;;;;;;9.00;4.85;;;;;;;;;;5017353;28;20081;-78
2023/08/15 07:28:45;;;;;;;11.95;5.40;;;;;;;;;;5012979;28;20407;-73
2023/08/15 07:31:11;;;;;;;11.77;5.57;;;;;;;;;;5011236;28;20964;-78
2023/08/15 07:33:43;;;;;;;5.45;4.45;;;;;;;;;;5012804;28;20067;-77
2023/08/15 07:36:11;;;;;;;9.25;5.43;;;;;;;;;;5023308;28;20026;-78
2023/08/15 07:38:37;;;;;;;7.53;4.78;;;;;;;;;;5010140;28;20026;-78
2023/08/15 07:41:07;;;;;;;11.02;6.15;;;;;;;;;;5023248;28;20026;-78
2023/08/15 07:43:33;;;;;;;11.77;4.85;;;;;;;;;;5009910;28;20391;-74
2023/08/15 07:45:59;;;;;;;5.78;4.43;;;;;;;;;;5009413;28;20478;-74
2023/08/15 07:48:26;;;;;;;10.32;4.60;;;;;;;;;;5009770;28;20040;-76
2023/08/15 07:50:56;;;;;;;6.72;4.30;;;;;;;;;;5011068;28;20032;-76
2023/08/15 07:53:25;;;;;;;16.20;4.80;;;;;;;;;;5008834;28;20030;-78
2023/08/15 07:55:58;;;;;;;10.52;4.78;;;;;;;;;;4997788;28;20038;-79
2023/08/15 07:58:25;;;;;;;7.60;4.55;;;;;;;;;;5030355;28;20038;-77
2023/08/15 08:00:53;;;;;;;5.82;4.72;;;;;;;;;;5004440;28;20046;-77
2023/08/15 08:03:21;;;;;;;4.13;3.72;;;;;;;;;;5019793;28;20032;-77
2023/08/15 08:05:52;;;;;;;7.10;4.60;;;;;;;;;;5009640;28;20023;-77
2023/08/15 08:08:19;;;;;;;8.20;5.03;;;;;;;;;;5011385;28;20455;-75
2023/08/15 08:10:47;;;;;;;8.45;3.70;;;;;;;;;;5017964;28;20064;-77
2023/08/15 08:13:16;;;;;;;7.82;4.32;;;;;;;;;;5022792;28;20037;-73
2023/08/15 08:15:43;;;;;;;4.88;4.30;;;;;;;;;;5013919;28;20128;-74
2023/08/15 08:18:10;;;;;;;4.90;4.38;;;;;;;;;;5006143;28;20525;-78
2023/08/15 08:20:37;;;;;;;15.43;5.68;;;;;;;;;;5012066;28;20037;-78
2023/08/15 08:23:08;;;;;;;9.80;4.28;;;;;;;;;;5009838;28;20121;-75
2023/08/15 08:25:35;;;;;;;5.43;4.82;;;;;;;;;;5015022;28;20045;-76
2023/08/15 08:28:05;;;;;;;7.60;4.57;;;;;;;;;;5017544;28;20539;-76
2023/08/15 08:30:33;;;;;;;8.48;4.25;;;;;;;;;;5011445;28;20037;-75
2023/08/15 08:32:58;;;;;;;12.70;4.28;;;;;;;;;;5027321;28;20085;-76
2023/08/15 08:35:25;;;;;;;10.45;5.68;;;;;;;;;;5009735;28;20030;-75
2023/08/15 08:37:51;;;;;;;14.05;6.20;;;;;;;;;;5008851;28;20037;-78
2023/08/15 08:40:17;;;;;;;10.05;4.43;;;;;;;;;;5007439;28;20060;-75
2023/08/15 08:42:44;;;;;;;5.72;4.15;;;;;;;;;;5013013;28;20073;-76
2023/08/15 08:45:12;;;;;;;9.25;4.18;;;;;;;;;;5009090;28;20021;-75
2023/08/15 08:47:39;;;;;;;14.55;5.43;;;;;;;;;;5013931;28;20091;-76
2023/08/15 08:50:09;;;;;;;6.85;4.78;;;;;;;;;;5013505;28;20093;-76
2023/08/15 08:52:59;;;;;;;11.70;4.90;;;;;;;;;;5011576;28;20044;-76
2023/08/15 08:55:28;;;;;;;8.15;4.85;;;;;;;;;;5006753;28;20070;-74
2023/08/15 08:58:00;;;;;;;13.45;4.72;;;;;;;;;;5006438;28;20053;-77
2023/08/15 09:00:31;;;;;;;8.45;4.22;;;;;;;;;;5010239;28;20030;-76
2023/08/15 09:02:58;;;;;;;7.90;4.28;;;;;;;;;;5007047;28;20033;-77
2023/08/15 09:05:24;;;;;;;10.27;4.72;;;;;;;;;;5009199;28;20026;-80
2023/08/15 09:07:53;;;;;;;4.63;4.03;;;;;;;;;;5012756;28;20038;-76
2023/08/15 09:10:22;;;;;;;15.50;4.57;;;;;;;;;;5007215;28;20056;-76
2023/08/15 09:12:47;;;;;;;10.48;4.45;;;;;;;;;;5018124;28;20034;-77
2023/08/15 09:15:19;;;;;;;5.68;4.60;;;;;;;;;;5014490;28;20032;-76
2023/08/15 09:17:47;;;;;;;5.75;4.65;;;;;;;;;;4999811;28;20548;-79
2023/08/15 09:20:15;;;;;;;11.68;4.60;;;;;;;;;;5008177;28;20075;-78
2023/08/15 09:22:46;;;;;;;9.40;4.15;;;;;;;;;;5005058;28;20045;-76
2023/08/15 09:25:20;;;;;;;7.68;4.55;;;;;;;;;;5009968;28;20041;-79
2023/08/15 09:27:46;;;;;;;5.55;3.90;;;;;;;;;;5014191;28;20045;-82
2023/08/15 09:30:19;;;;;;;6.40;4.45;;;;;;;;;;5030759;28;20155;-79
2023/08/15 09:32:48;;;;;;;7.72;4.60;;;;;;;;;;5016163;28;20454;-80
2023/08/15 09:35:17;;;;;;;5.80;4.47;;;;;;;;;;5009375;28;20121;-75
2023/08/15 09:37:49;;;;;;;11.63;4.75;;;;;;;;;;5010260;28;20113;-80
2023/08/15 09:40:30;;;;;;;9.55;4.88;;;;;;;;;;5008829;28;20677;-81
2023/08/15 09:42:59;;;;;;;6.90;4.47;;;;;;;;;;5007183;28;20061;-82
2023/08/15 09:45:27;;;;;;;5.65;4.18;;;;;;;;;;5012248;28;20100;-79
2023/08/15 09:48:00;;;;;;;8.00;4.05;;;;;;;;;;5007990;28;20056;-81
2023/08/15 09:50:49;;;;;;;9.07;4.53;;;;;;;;;;5006491;28;20268;-79
2023/08/15 09:53:25;;;;;;;4.32;3.92;;;;;;;;;;5024099;28;20034;-83
2023/08/15 09:55:53;;;;;;;4.82;4.32;;;;;;;;;;5014398;28;20030;-80
2023/08/15 09:58:22;;;;;;;6.03;3.92;;;;;;;;;;5026530;28;20032;-78
2023/08/15 10:00:51;;;;;;;15.38;4.75;;;;;;;;;;5016815;28;20053;-81
2023/08/15 10:03:37;;;;;;;7.07;5.63;;;;;;;;;;5018250;28;20518;-82
2023/08/15 10:06:08;;;;;;;17.17;4.05;;;;;;;;;;5016459;28;20049;-80
2023/08/15 10:08:39;;;;;;;7.63;4.43;;;;;;;;;;5014037;28;20029;-82
2023/08/15 10:11:10;;;;;;;11.88;5.22;;;;;;;;;;5030611;28;20049;-82
2023/08/15 10:13:42;;;;;;;17.17;6.68;;;;;;;;;;5010972;28;20030;-81
2023/08/15 10:16:12;;;;;;;12.48;4.90;;;;;;;;;;5018253;28;20026;-79
2023/08/15 10:18:53;;;;;;;9.98;4.35;;;;;;;;;;5016087;28;20148;-79
2023/08/15 10:21:19;;;;;;;;;;;;;;;;;;5018994;28;20047;-80
2023/08/15 10:23:46;;;;;;;7.15;4.95;;;;;;;;;;5019765;28;19984;-78
2023/08/15 10:26:17;;;;;;;15.50;4.82;;;;;;;;;;5018637;28;20060;-80
2023/08/15 10:28:47;;;;;;;9.38;4.60;;;;;;;;;;5038511;28;20064;-84
2023/08/15 10:31:33;;;;;;;5.70;5.13;;;;;;;;;;5036068;28;20021;-80
2023/08/15 10:34:02;;;;;;;6.25;4.80;;;;;;;;;;5019122;28;20159;-78
2023/08/15 10:36:38;;;;;;;7.00;4.82;;;;;;;;;;5011755;28;20056;-83
2023/08/15 10:39:07;;;;;;;25.15;6.15;;;;;;;;;;5035395;28;20098;-79
2023/08/15 10:41:40;;;;;;;11.65;4.82;;;;;;;;;;5031368;28;20067;-78
2023/08/15 10:44:11;;;;;;;7.00;5.00;;;;;;;;;;5035521;28;20037;-79
2023/08/15 10:46:40;;;;;;;;;;;;;;;;;;5032704;28;20357;-81
2023/08/15 10:49:10;;;;;;;10.35;5.18;;;;;;;;;;5019946;28;20010;-81
2023/08/15 10:51:38;;;;;;;8.95;4.93;;;;;;;;;;5036282;28;20474;-83
2023/08/15 10:54:20;;;;;;;10.45;6.68;;;;;;;;;;5026272;28;20037;-79
2023/08/15 10:56:47;;;;;;;14.73;5.57;;;;;;;;;;5013942;28;20541;-80
2023/08/15 10:59:15;;;;;;;6.72;4.60;;;;;;;;;;5022219;28;20058;-74
2023/08/15 11:01:48;;;;;;;5.25;4.70;;;;;;;;;;5015034;28;20033;-77
2023/08/15 11:04:24;;;;;;;5.72;4.63;;;;;;;;;;5049534;28;20036;-81
2023/08/15 11:07:02;;;;;;;14.75;5.68;;;;;;;;;;5048834;28;20091;-80
2023/08/15 11:09:38;;;;;;;12.57;5.78;;;;;;;;;;5047710;28;20473;-81
2023/08/15 11:12:08;;;;;;;6.18;4.63;;;;;;;;;;5051865;28;20123;-83
2023/08/15 11:14:43;;;;;;;10.10;4.97;;;;;;;;;;5045778;28;20107;-83
2023/08/15 11:17:14;;;;;;;11.90;5.22;;;;;;;;;;5052862;28;20026;-80
2023/08/15 11:19:41;;;;;;;5.60;4.57;;;;;;;;;;5028252;28;20049;-78
2023/08/15 11:22:07;;;;;;;6.05;4.40;;;;;;;;;;5042095;28;20025;-81
2023/08/15 11:24:34;;;;;;;11.80;5.38;;;;;;;;;;5023035;28;20421;-79
2023/08/15 11:27:01;;;;;;;14.05;5.90;;;;;;;;;;5029927;28;20052;-81
2023/08/15 11:29:29;;;;;;;10.07;4.90;;;;;;;;;;5021341;28;20094;-80
2023/08/15 11:32:00;;;;;;;9.85;4.85;;;;;;;;;;5013929;28;20039;-82
2023/08/15 11:34:29;;;;;;;9.63;4.72;;;;;;;;;;5023790;28;20088;-80
2023/08/15 11:37:00;;;;;;;5.45;4.68;;;;;;;;;;5015838;28;20041;-80
2023/08/15 11:39:28;;;;;;;6.43;4.60;;;;;;;;;;5009407;28;20114;-78
2023/08/15 11:41:55;;;;;;;18.08;6.63;;;;;;;;;;5008831;28;20070;-82
2023/08/15 11:44:32;;;;;;;8.60;4.82;;;;;;;;;;5016278;28;20498;-79
2023/08/15 11:46:58;;;;;;;7.22;4.78;;;;;;;;;;5005893;28;20037;-77
2023/08/15 11:49:26;;;;;;;10.65;5.10;;;;;;;;;;5017054;28;20087;-79
2023/08/15 11:52:03;;;;;;;8.88;5.20;;;;;;;;;;5032169;28;20029;-81
2023/08/15 11:54:46;;;;;;;7.35;5.70;;;;;;;;;;5017932;28;20126;-79
2023/08/15 11:57:34;;;;;;;7.22;5.03;;;;;;;;;;5010463;28;20084;-78
2023/08/15 12:00:02;;;;;;;9.52;5.25;;;;;;;;;;4993279;28;20037;-82
2023/08/15 12:02:42;;;;;;;6.78;5.43;;;;;;;;;;5014278;28;20096;-79
2023/08/15 12:05:29;;;;;;;12.02;4.82;;;;;;;;;;5017809;28;20117;-81
2023/08/15 12:08:01;;;;;;;5.75;5.00;;;;;;;;;;5002342;28;20041;-79
2023/08/15 12:10:40;;;;;;;6.65;4.72;;;;;;;;;;5022499;28;20037;-80
2023/08/15 12:13:10;;;;;;;9.52;4.95;;;;;;;;;;5007494;28;20136;-79
2023/08/15 12:15:36;;;;;;;8.98;4.90;;;;;;;;;;5010143;28;20026;-82
2023/08/15 12:18:09;;;;;;;8.95;4.30;;;;;;;;;;5021430;28;20039;-79
2023/08/15 12:20:35;;;;;;;6.97;5.45;;;;;;;;;;5012085;28;20451;-79
2023/08/15 12:23:02;;;;;;;7.22;4.22;;;;;;;;;;5009612;28;20105;-77
2023/08/15 12:25:32;;;;;;;4.72;4.15;;;;;;;;;;5009479;28;20030;-79
2023/08/15 12:28:01;;;;;;;7.60;4.70;;;;;;;;;;5015821;28;20042;-82
2023/08/15 12:30:30;;;;;;;6.45;4.72;;;;;;;;;;5031547;28;20081;-80
2023/08/15 12:33:02;;;;;;;6.75;4.28;;;;;;;;;;5014369;28;20040;-79
2023/08/15 12:35:37;;;;;;;12.52;4.47;;;;;;;;;;5004804;28;20032;-83
2023/08/15 12:38:03;;;;;;;4.57;4.18;;;;;;;;;;5013927;28;20046;-77
2023/08/15 12:40:28;;;;;;;6.97;4.32;;;;;;;;;;5016708;28;20029;-80
2023/08/15 12:42:55;;;;;;;5.88;4.05;;;;;;;;;;5021615;28;20045;-77
2023/08/15 12:45:28;;;;;;;6.07;4.20;;;;;;;;;;5028920;28;20094;-81
2023/08/15 12:47:57;;;;;;;18.20;5.57;;;;;;;;;;5018886;28;20038;-80
2023/08/15 12:50:31;;;;;;;6.00;3.65;;;;;;;;;;5025387;28;20065;-77
2023/08/15 12:53:00;;;;;;;15.18;4.85;;;;;;;;;;5016335;28;20037;-79
2023/08/15 12:55:32;;;;;;;7.75;4.22;;;;;;;;;;5019443;28;20029;-78
2023/08/15 12:58:05;;;;;;;7.45;4.47;;;;;;;;;;5013089;28;20041;-78
2023/08/15 13:00:36;;;;;;;6.75;4.13;;;;;;;;;;5004512;28;20037;-81
2023/08/15 13:03:05;;;;;;;12.07;4.20;;;;;;;;;;5017711;28;20407;-78
2023/08/15 13:05:32;;;;;;;7.78;4.20;;;;;;;;;;4988869;28;20021;-79
2023/08/15 13:08:09;;;;;;;10.40;4.40;;;;;;;;;;5009925;28;20049;-78
2023/08/15 13:10:36;;;;;;;4.30;3.90;;;;;;;;;;5013912;28;20029;-77
2023/08/15 13:13:03;;;;;;;11.68;4.50;;;;;;;;;;5016601;28;20105;-78
2023/08/15 13:15:41;;;;;;;4.90;4.30;;;;;;;;;;4992356;28;20335;-78
2023/08/15 13:18:12;;;;;;;5.45;4.50;;;;;;;;;;5011569;28;20030;-77
2023/08/15 13:20:39;;;;;;;9.90;4.38;;;;;;;;;;4986525;28;20053;-78
2023/08/15 13:23:05;;;;;;;12.90;4.57;;;;;;;;;;5023242;28;20457;-78
2023/08/15 13:25:31;;;;;;;4.38;3.95;;;;;;;;;;5029522;28;20036;-77
2023/08/15 13:27:58;;;;;;;11.25;4.80;;;;;;;;;;5027530;28;20053;-78
2023/08/15 13:30:27;;;;;;;7.82;4.05;;;;;;;;;;5012560;28;20209;-76
2023/08/15 13:32:53;;;;;;;8.07;4.43;;;;;;;;;;5012860;28;20041;-76
2023/08/15 13:35:21;;;;;;;11.63;4.45;;;;;;;;;;5025891;28;20029;-79
2023/08/15 13:37:50;;;;;;;10.93;4.78;;;;;;;;;;5006773;28;20081;-78
2023/08/15 13:40:20;;;;;;;7.03;3.88;;;;;;;;;;5006837;28;20028;-78
2023/08/15 13:42:50;;;;;;;7.25;4.30;;;;;;;;;;4998657;28;20034;-80
2023/08/15 13:45:21;;;;;;;8.65;3.85;;;;;;;;;;5002919;28;20026;-77
2023/08/15 13:47:51;;;;;;;10.82;4.18;;;;;;;;;;5007033;28;20032;-77
2023/08/15 13:50:21;;;;;;;5.40;3.45;;;;;;;;;;4996370;28;20145;-78
2023/08/15 13:52:47;;;;;;;6.28;3.75;;;;;;;;;;5027064;28;20022;-77
2023/08/15 13:55:15;;;;;;;11.88;4.95;;;;;;;;;;5008103;28;20031;-78
2023/08/15 13:57:51;;;;;;;7.20;3.97;;;;;;;;;;5015446;28;20389;-76
2023/08/15 14:00:19;;;;;;;6.43;4.18;;;;;;;;;;5009473;28;20040;-72
2023/08/15 14:03:10;;;;;;;8.05;4.15;;;;;;;;;;5016811;28;20034;-78
2023/08/15 14:05:36;;;;;;;7.13;4.00;;;;;;;;;;4998458;28;20053;-78
2023/08/15 14:08:02;;;;;;;7.55;4.32;;;;;;;;;;5004474;28;20029;-76
2023/08/15 14:10:29;;;;;;;4.50;3.67;;;;;;;;;;5005862;28;20017;-76
2023/08/15 14:12:57;;;;;;;12.63;4.60;;;;;;;;;;5016483;28;20619;-77
2023/08/15 14:15:29;;;;;;;10.63;4.00;;;;;;;;;;5013123;28;20049;-77
2023/08/15 14:17:57;;;;;;;9.23;4.07;;;;;;;;;;5002599;28;20030;-75
2023/08/15 14:20:33;;;;;;;10.80;4.28;;;;;;;;;;5006515;28;20088;-79
2023/08/15 14:23:01;;;;;;;5.22;3.63;;;;;;;;;;5013601;28;20036;-78
2023/08/15 14:25:27;;;;;;;5.13;3.60;;;;;;;;;;5012893;28;20574;-78
2023/08/15 14:28:02;;;;;;;5.68;3.22;;;;;;;;;;5003510;28;20149;-76
2023/08/15 14:30:34;;;;;;;6.82;3.60;;;;;;;;;;5007889;28;20057;-77
2023/08/15 14:33:07;;;;;;;5.47;3.03;;;;;;;;;;5002925;28;20041;-76
2023/08/15 14:35:45;;;;;;;14.18;5.13;;;;;;;;;;5011261;28;20034;-78
2023/08/15 14:38:13;;;;;;;6.78;3.63;;;;;;;;;;5009354;28;20021;-78
2023/08/15 14:40:46;;;;;;;5.78;3.28;;;;;;;;;;4996078;28;20522;-78
2023/08/15 14:43:12;;;;;;;5.35;3.03;;;;;;;;;;5010992;28;20033;-77
2023/08/15 14:45:38;;;;;;;11.38;4.18;;;;;;;;;;5021085;28;20087;-78